sensor_id;sensor_type;location;lat;lon;timestamp;pressure;altitude;pressure_sealevel;temperature;humidity
61573;BME280;47465;43.094;12.434;2023-06-05T00:02:04;98697.22;;;16.27;100.00
61573;BME280;47465;43.094;12.434;2023-06-05T00:04:30;98722.28;;;16.43;100.00
61573;BME280;47465;43.094;12.434;2023-06-05T00:06:56;98696.00;;;16.33;100.00
61573;BME280;47465;43.094;12.434;2023-06-05T00:09:26;98708.03;;;16.26;100.00
61573;BME280;47465;43.094;12.434;2023-06-05T00:11:52;98703.44;;;16.28;100.00
61573;BME280;47465;43.094;12.434;2023-06-05T00:14:19;98702.59;;;16.27;100.00
61573;BME280;47465;43.094;12.434;2023-06-05T00:16:45;98718.63;;;16.46;100.00
61573;BME280;47465;43.094;12.434;2023-06-05T00:19:12;98696.81;;;16.35;100.00
61573;BME280;47465;43.094;12.434;2023-06-05T00:21:38;98702.03;;;16.38;100.00
61573;BME280;47465;43.094;12.434;2023-06-05T00:24:04;98695.16;;;16.32;100.00
61573;BME280;47465;43.094;12.434;2023-06-05T00:26:30;98698.81;;;16.31;100.00
61573;BME280;47465;43.094;12.434;2023-06-05T00:28:56;98703.84;;;16.37;100.00
61573;BME280;47465;43.094;12.434;2023-06-05T00:31:22;98691.78;;;16.29;100.00
61573;BME280;47465;43.094;12.434;2023-06-05T00:33:48;98697.28;;;16.26;100.00
61573;BME280;47465;43.094;12.434;2023-06-05T00:36:16;98700.69;;;16.29;100.00
61573;BME280;47465;43.094;12.434;2023-06-05T00:38:44;98707.53;;;16.35;100.00
61573;BME280;47465;43.094;12.434;2023-06-05T00:41:10;98687.75;;;16.20;100.00
61573;BME280;47465;43.094;12.434;2023-06-05T00:43:36;98697.28;;;16.26;100.00
61573;BME280;47465;43.094;12.434;2023-06-05T00:46:04;98698.94;;;16.28;100.00
61573;BME280;47465;43.094;12.434;2023-06-05T00:48:31;98696.34;;;16.27;100.00
61573;BME280;47465;43.094;12.434;2023-06-05T00:50:58;98703.13;;;16.34;100.00
61573;BME280;47465;43.094;12.434;2023-06-05T00:53:27;98714.97;;;16.47;100.00
61573;BME280;47465;43.094;12.434;2023-06-05T00:55:53;98725.88;;;16.44;100.00
61573;BME280;47465;43.094;12.434;2023-06-05T00:58:20;98726.97;;;16.40;100.00
61573;BME280;47465;43.094;12.434;2023-06-05T01:00:46;98712.03;;;16.34;100.00
61573;BME280;47465;43.094;12.434;2023-06-05T01:03:15;98692.22;;;16.19;100.00
61573;BME280;47465;43.094;12.434;2023-06-05T01:05:42;98703.50;;;16.09;100.00
61573;BME280;47465;43.094;12.434;2023-06-05T01:08:09;98689.47;;;16.04;100.00
61573;BME280;47465;43.094;12.434;2023-06-05T01:10:39;98705.09;;;16.13;100.00
61573;BME280;47465;43.094;12.434;2023-06-05T01:13:10;98705.94;;;16.13;100.00
61573;BME280;47465;43.094;12.434;2023-06-05T01:15:41;98683.84;;;15.91;100.00
61573;BME280;47465;43.094;12.434;2023-06-05T01:18:07;98690.00;;;15.93;100.00
61573;BME280;47465;43.094;12.434;2023-06-05T01:20:35;98681.25;;;15.89;100.00
61573;BME280;47465;43.094;12.434;2023-06-05T01:23:02;98694.13;;;16.00;100.00
61573;BME280;47465;43.094;12.434;2023-06-05T01:25:28;98707.22;;;16.06;100.00
61573;BME280;47465;43.094;12.434;2023-06-05T01:27:59;98688.06;;;15.96;100.00
61573;BME280;47465;43.094;12.434;2023-06-05T01:30:30;98666.41;;;15.82;100.00
61573;BME280;47465;43.094;12.434;2023-06-05T01:33:02;98677.69;;;15.89;100.00
61573;BME280;47465;43.094;12.434;2023-06-05T01:35:32;98671.53;;;15.87;100.00
61573;BME280;47465;43.094;12.434;2023-06-05T01:38:36;98679.34;;;15.91;100.00
61573;BME280;47465;43.094;12.434;2023-06-05T01:41:04;98678.16;;;15.79;100.00
61573;BME280;47465;43.094;12.434;2023-06-05T01:43:34;98684.69;;;15.74;100.00
61573;BME280;47465;43.094;12.434;2023-06-05T01:46:01;98684.63;;;15.75;100.00
61573;BME280;47465;43.094;12.434;2023-06-05T01:48:27;98684.16;;;15.85;100.00
61573;BME280;47465;43.094;12.434;2023-06-05T01:50:55;98682.13;;;15.90;100.00
61573;BME280;47465;43.094;12.434;2023-06-05T01:53:21;98685.81;;;15.87;100.00
61573;BME280;47465;43.094;12.434;2023-06-05T01:55:49;98680.06;;;15.95;100.00
61573;BME280;47465;43.094;12.434;2023-06-05T01:58:18;98668.63;;;15.91;100.00
61573;BME280;47465;43.094;12.434;2023-06-05T02:00:44;98694.84;;;16.04;100.00
61573;BME280;47465;43.094;12.434;2023-06-05T02:03:10;98699.03;;;16.09;100.00
61573;BME280;47465;43.094;12.434;2023-06-05T02:05:37;98698.31;;;16.06;100.00
61573;BME280;47465;43.094;12.434;2023-06-05T02:08:03;98670.63;;;15.88;100.00
61573;BME280;47465;43.094;12.434;2023-06-05T02:10:31;98680.88;;;15.97;100.00
61573;BME280;47465;43.094;12.434;2023-06-05T02:12:58;98667.59;;;15.94;100.00
61573;BME280;47465;43.094;12.434;2023-06-05T02:15:24;98676.91;;;15.87;100.00
61573;BME280;47465;43.094;12.434;2023-06-05T02:17:51;98656.09;;;15.92;100.00
61573;BME280;47465;43.094;12.434;2023-06-05T02:20:21;98693.34;;;16.15;100.00
61573;BME280;47465;43.094;12.434;2023-06-05T02:22:47;98682.84;;;16.11;100.00
61573;BME280;47465;43.094;12.434;2023-06-05T02:25:17;98657.22;;;16.05;100.00
61573;BME280;47465;43.094;12.434;2023-06-05T02:27:43;98650.41;;;15.98;100.00
61573;BME280;47465;43.094;12.434;2023-06-05T02:30:12;98656.25;;;16.06;100.00
61573;BME280;47465;43.094;12.434;2023-06-05T02:32:38;98657.91;;;16.09;100.00
61573;BME280;47465;43.094;12.434;2023-06-05T02:35:09;98651.75;;;16.07;100.00
61573;BME280;47465;43.094;12.434;2023-06-05T02:37:39;98651.75;;;16.07;100.00
61573;BME280;47465;43.094;12.434;2023-06-05T02:40:10;98660.03;;;16.02;100.00
61573;BME280;47465;43.094;12.434;2023-06-05T02:42:37;98655.69;;;15.99;100.00
61573;BME280;47465;43.094;12.434;2023-06-05T02:45:03;98656.88;;;15.94;100.00
61573;BME280;47465;43.094;12.434;2023-06-05T02:47:31;98661.78;;;16.03;100.00
61573;BME280;47465;43.094;12.434;2023-06-05T02:49:57;98651.19;;;16.00;100.00
61573;BME280;47465;43.094;12.434;2023-06-05T02:52:23;98679.28;;;16.28;100.00
61573;BME280;47465;43.094;12.434;2023-06-05T02:54:50;98648.84;;;16.11;100.00
61573;BME280;47465;43.094;12.434;2023-06-05T02:57:17;98639.00;;;16.12;100.00
61573;BME280;47465;43.094;12.434;2023-06-05T02:59:43;98671.56;;;16.21;100.00
61573;BME280;47465;43.094;12.434;2023-06-05T03:02:09;98649.00;;;16.08;100.00
61573;BME280;47465;43.094;12.434;2023-06-05T03:04:37;98657.59;;;16.15;100.00
61573;BME280;47465;43.094;12.434;2023-06-05T03:07:06;98665.03;;;16.27;100.00
61573;BME280;47465;43.094;12.434;2023-06-05T03:09:34;98646.94;;;16.13;100.00
61573;BME280;47465;43.094;12.434;2023-06-05T03:12:00;98641.25;;;16.02;100.00
61573;BME280;47465;43.094;12.434;2023-06-05T03:14:26;98629.84;;;15.98;100.00
61573;BME280;47465;43.094;12.434;2023-06-05T03:16:53;98643.00;;;16.03;100.00
61573;BME280;47465;43.094;12.434;2023-06-05T03:19:20;98664.38;;;16.22;100.00
61573;BME280;47465;43.094;12.434;2023-06-05T03:21:47;98649.97;;;16.07;100.00
61573;BME280;47465;43.094;12.434;2023-06-05T03:24:15;98635.81;;;16.04;100.00
61573;BME280;47465;43.094;12.434;2023-06-05T03:26:42;98634.19;;;16.01;100.00
61573;BME280;47465;43.094;12.434;2023-06-05T03:29:10;98629.59;;;16.03;100.00
61573;BME280;47465;43.094;12.434;2023-06-05T03:31:36;98636.69;;;16.04;100.00
61573;BME280;47465;43.094;12.434;2023-06-05T03:34:03;98647.81;;;16.14;100.00
61573;BME280;47465;43.094;12.434;2023-06-05T03:36:29;98639.28;;;16.06;100.00
61573;BME280;47465;43.094;12.434;2023-06-05T03:38:57;98635.66;;;16.07;100.00
61573;BME280;47465;43.094;12.434;2023-06-05T03:41:23;98641.97;;;16.06;100.00
61573;BME280;47465;43.094;12.434;2023-06-05T03:43:49;98669.72;;;16.22;100.00
61573;BME280;47465;43.094;12.434;2023-06-05T03:46:15;98637.47;;;16.06;100.00
61573;BME280;47465;43.094;12.434;2023-06-05T03:48:44;98639.84;;;16.12;100.00
61573;BME280;47465;43.094;12.434;2023-06-05T03:51:10;98644.19;;;16.15;100.00
61573;BME280;47465;43.094;12.434;2023-06-05T03:53:37;98643.09;;;16.19;100.00
61573;BME280;47465;43.094;12.434;2023-06-05T03:56:07;98638.50;;;16.21;100.00
61573;BME280;47465;43.094;12.434;2023-06-05T03:58:34;98683.94;;;16.41;100.00
61573;BME280;47465;43.094;12.434;2023-06-05T04:01:00;98642.84;;;16.23;100.00
61573;BME280;47465;43.094;12.434;2023-06-05T04:03:26;98653.00;;;16.34;100.00
61573;BME280;47465;43.094;12.434;2023-06-05T04:05:52;98644.03;;;16.35;100.00
61573;BME280;47465;43.094;12.434;2023-06-05T04:08:18;98641.25;;;16.37;100.00
61573;BME280;47465;43.094;12.434;2023-06-05T04:10:45;98644.88;;;16.36;100.00
61573;BME280;47465;43.094;12.434;2023-06-05T04:13:13;98655.44;;;16.39;100.00
61573;BME280;47465;43.094;12.434;2023-06-05T04:15:39;98655.31;;;16.42;100.00
61573;BME280;47465;43.094;12.434;2023-06-05T04:18:05;98662.25;;;16.46;100.00
61573;BME280;47465;43.094;12.434;2023-06-05T04:20:31;98668.06;;;16.54;100.00
61573;BME280;47465;43.094;12.434;2023-06-05T04:22:57;98652.13;;;16.51;100.00
61573;BME280;47465;43.094;12.434;2023-06-05T04:25:23;98646.75;;;16.51;100.00
61573;BME280;47465;43.094;12.434;2023-06-05T04:27:49;98643.28;;;16.49;100.00
61573;BME280;47465;43.094;12.434;2023-06-05T04:30:18;98645.00;;;16.50;100.00
61573;BME280;47465;43.094;12.434;2023-06-05T04:32:45;98640.78;;;16.46;100.00
61573;BME280;47465;43.094;12.434;2023-06-05T04:35:23;98631.38;;;16.55;100.00
61573;BME280;47465;43.094;12.434;2023-06-05T04:37:49;98647.06;;;16.78;100.00
61573;BME280;47465;43.094;12.434;2023-06-05T04:40:16;98629.16;;;16.79;100.00
61573;BME280;47465;43.094;12.434;2023-06-05T04:42:45;98634.59;;;16.95;100.00
61573;BME280;47465;43.094;12.434;2023-06-05T04:45:11;98639.38;;;17.06;100.00
61573;BME280;47465;43.094;12.434;2023-06-05T04:47:38;98628.19;;;17.13;100.00
61573;BME280;47465;43.094;12.434;2023-06-05T04:50:05;98633.47;;;17.15;100.00
61573;BME280;47465;43.094;12.434;2023-06-05T04:52:32;98635.66;;;17.24;100.00
61573;BME280;47465;43.094;12.434;2023-06-05T04:54:58;98629.72;;;17.17;100.00
61573;BME280;47465;43.094;12.434;2023-06-05T04:57:27;98629.06;;;17.14;100.00
61573;BME280;47465;43.094;12.434;2023-06-05T04:59:53;98630.06;;;16.95;100.00
61573;BME280;47465;43.094;12.434;2023-06-05T05:02:20;98639.63;;;17.01;100.00
61573;BME280;47465;43.094;12.434;2023-06-05T05:04:48;98653.25;;;17.14;100.00
61573;BME280;47465;43.094;12.434;2023-06-05T05:07:14;98648.66;;;17.16;100.00
61573;BME280;47465;43.094;12.434;2023-06-05T05:09:42;98642.75;;;17.09;100.00
61573;BME280;47465;43.094;12.434;2023-06-05T05:12:08;98655.22;;;17.26;100.00
61573;BME280;47465;43.094;12.434;2023-06-05T05:14:35;98658.53;;;17.31;100.00
61573;BME280;47465;43.094;12.434;2023-06-05T05:17:02;98646.22;;;17.27;100.00
61573;BME280;47465;43.094;12.434;2023-06-05T05:19:28;98638.44;;;17.22;100.00
61573;BME280;47465;43.094;12.434;2023-06-05T05:21:55;98678.66;;;17.40;100.00
61573;BME280;47465;43.094;12.434;2023-06-05T05:24:21;98659.13;;;17.36;100.00
61573;BME280;47465;43.094;12.434;2023-06-05T05:26:49;98656.28;;;17.39;100.00
61573;BME280;47465;43.094;12.434;2023-06-05T05:29:15;98677.28;;;17.49;100.00
61573;BME280;47465;43.094;12.434;2023-06-05T05:31:41;98681.69;;;17.50;100.00
61573;BME280;47465;43.094;12.434;2023-06-05T05:34:07;98697.13;;;17.46;100.00
61573;BME280;47465;43.094;12.434;2023-06-05T05:36:33;98666.16;;;17.23;100.00
61573;BME280;47465;43.094;12.434;2023-06-05T05:39:01;98661.72;;;17.06;100.00
61573;BME280;47465;43.094;12.434;2023-06-05T05:41:27;98659.34;;;17.00;100.00
61573;BME280;47465;43.094;12.434;2023-06-05T05:43:53;98698.28;;;17.09;100.00
61573;BME280;47465;43.094;12.434;2023-06-05T05:46:19;98710.00;;;17.08;100.00
61573;BME280;47465;43.094;12.434;2023-06-05T05:48:45;98671.66;;;16.88;100.00
61573;BME280;47465;43.094;12.434;2023-06-05T05:51:11;98699.44;;;17.04;100.00
61573;BME280;47465;43.094;12.434;2023-06-05T05:53:37;98681.44;;;16.89;100.00
61573;BME280;47465;43.094;12.434;2023-06-05T05:56:04;98683.91;;;16.94;100.00
61573;BME280;47465;43.094;12.434;2023-06-05T05:58:30;98671.72;;;16.87;100.00
61573;BME280;47465;43.094;12.434;2023-06-05T06:00:57;98682.41;;;16.88;100.00
61573;BME280;47465;43.094;12.434;2023-06-05T06:03:25;98685.03;;;16.72;100.00
61573;BME280;47465;43.094;12.434;2023-06-05T06:05:53;98680.50;;;16.73;100.00
61573;BME280;47465;43.094;12.434;2023-06-05T06:08:19;98686.81;;;16.72;100.00
61573;BME280;47465;43.094;12.434;2023-06-05T06:10:45;98692.19;;;16.72;100.00
61573;BME280;47465;43.094;12.434;2023-06-05T06:13:13;98718.09;;;16.90;100.00
61573;BME280;47465;43.094;12.434;2023-06-05T06:15:39;98680.50;;;16.73;100.00
61573;BME280;47465;43.094;12.434;2023-06-05T06:18:06;98689.84;;;16.83;100.00
61573;BME280;47465;43.094;12.434;2023-06-05T06:20:32;98719.34;;;17.00;100.00
61573;BME280;47465;43.094;12.434;2023-06-05T06:23:00;98688.25;;;16.79;100.00
61573;BME280;47465;43.094;12.434;2023-06-05T06:25:26;98689.84;;;16.83;100.00
61573;BME280;47465;43.094;12.434;2023-06-05T06:27:54;98730.78;;;17.04;100.00
61573;BME280;47465;43.094;12.434;2023-06-05T06:30:21;98694.19;;;16.86;100.00
61573;BME280;47465;43.094;12.434;2023-06-05T06:32:47;98688.47;;;16.92;100.00
61573;BME280;47465;43.094;12.434;2023-06-05T06:35:13;98724.50;;;17.21;100.00
61573;BME280;47465;43.094;12.434;2023-06-05T06:37:39;98696.91;;;17.01;100.00
61573;BME280;47465;43.094;12.434;2023-06-05T06:40:07;98703.84;;;17.06;100.00
61573;BME280;47465;43.094;12.434;2023-06-05T06:42:36;98697.69;;;17.03;100.00
61573;BME280;47465;43.094;12.434;2023-06-05T06:45:03;98714.72;;;17.20;100.00
61573;BME280;47465;43.094;12.434;2023-06-05T06:47:31;98698.06;;;17.13;100.00
61573;BME280;47465;43.094;12.434;2023-06-05T06:49:58;98697.28;;;17.27;100.00
61573;BME280;47465;43.094;12.434;2023-06-05T06:52:24;98710.91;;;17.40;100.00
61573;BME280;47465;43.094;12.434;2023-06-05T06:54:50;98701.63;;;17.45;100.00
61573;BME280;47465;43.094;12.434;2023-06-05T06:57:16;98706.91;;;17.47;100.00
61573;BME280;47465;43.094;12.434;2023-06-05T07:12:45;98741.97;;;18.09;100.00
61573;BME280;47465;43.094;12.434;2023-06-05T07:15:14;98710.72;;;18.06;100.00
61573;BME280;47465;43.094;12.434;2023-06-05T07:17:41;98698.28;;;18.20;100.00
61573;BME280;47465;43.094;12.434;2023-06-05T07:20:10;98689.59;;;18.45;100.00
61573;BME280;47465;43.094;12.434;2023-06-05T07:22:37;98733.88;;;19.00;100.00
61573;BME280;47465;43.094;12.434;2023-06-05T07:25:04;98690.94;;;18.97;100.00
61573;BME280;47465;43.094;12.434;2023-06-05T07:27:31;98700.09;;;19.08;100.00
61573;BME280;47465;43.094;12.434;2023-06-05T07:29:59;98719.13;;;19.34;100.00
61573;BME280;47465;43.094;12.434;2023-06-05T07:32:26;98690.91;;;19.40;100.00
61573;BME280;47465;43.094;12.434;2023-06-05T07:34:52;98686.66;;;19.50;100.00
61573;BME280;47465;43.094;12.434;2023-06-05T07:37:18;98694.81;;;19.63;100.00
61573;BME280;47465;43.094;12.434;2023-06-05T07:39:45;98686.66;;;19.92;100.00
61573;BME280;47465;43.094;12.434;2023-06-05T07:42:12;98684.56;;;19.82;100.00
61573;BME280;47465;43.094;12.434;2023-06-05T07:44:39;98688.81;;;19.99;100.00
61573;BME280;47465;43.094;12.434;2023-06-05T07:47:06;98674.06;;;20.05;100.00
61573;BME280;47465;43.094;12.434;2023-06-05T07:49:33;98669.66;;;20.17;100.00
61573;BME280;47465;43.094;12.434;2023-06-05T07:51:59;98684.97;;;20.56;100.00
61573;BME280;47465;43.094;12.434;2023-06-05T07:54:25;98697.88;;;20.78;100.00
61573;BME280;47465;43.094;12.434;2023-06-05T07:56:51;98682.44;;;20.93;100.00
61573;BME280;47465;43.094;12.434;2023-06-05T07:59:17;98680.34;;;21.09;100.00
61573;BME280;47465;43.094;12.434;2023-06-05T08:01:50;98721.00;;;21.46;100.00
61573;BME280;47465;43.094;12.434;2023-06-05T08:04:18;98681.81;;;21.39;100.00
61573;BME280;47465;43.094;12.434;2023-06-05T08:06:45;98694.06;;;21.32;100.00
61573;BME280;47465;43.094;12.434;2023-06-05T08:09:11;98671.81;;;20.90;100.00
61573;BME280;47465;43.094;12.434;2023-06-05T08:11:38;98695.38;;;20.88;100.00
61573;BME280;47465;43.094;12.434;2023-06-05T08:14:05;98679.59;;;20.82;100.00
61573;BME280;47465;43.094;12.434;2023-06-05T08:16:31;98686.66;;;20.84;100.00
61573;BME280;47465;43.094;12.434;2023-06-05T08:18:57;98684.34;;;20.65;100.00
61573;BME280;47465;43.094;12.434;2023-06-05T08:21:25;98697.53;;;20.57;100.00
61573;BME280;47465;43.094;12.434;2023-06-05T08:23:51;98677.03;;;20.40;100.00
61573;BME280;47465;43.094;12.434;2023-06-05T08:26:18;98676.63;;;20.46;100.00
61573;BME280;47465;43.094;12.434;2023-06-05T08:28:45;98669.09;;;20.51;100.00
61573;BME280;47465;43.094;12.434;2023-06-05T08:31:11;98700.56;;;20.65;100.00
61573;BME280;47465;43.094;12.434;2023-06-05T08:33:37;98712.66;;;20.60;100.00
61573;BME280;47465;43.094;12.434;2023-06-05T08:36:04;98684.25;;;20.27;100.00
61573;BME280;47465;43.094;12.434;2023-06-05T08:38:34;98688.53;;;20.04;100.00
61573;BME280;47465;43.094;12.434;2023-06-05T08:41:02;98692.06;;;19.92;100.00
61573;BME280;47465;43.094;12.434;2023-06-05T08:43:28;98687.84;;;19.73;100.00
61573;BME280;47465;43.094;12.434;2023-06-05T08:45:56;98683.25;;;19.61;100.00
61573;BME280;47465;43.094;12.434;2023-06-05T08:48:23;98707.19;;;19.80;100.00
61573;BME280;47465;43.094;12.434;2023-06-05T08:50:50;98683.56;;;19.42;100.00
61573;BME280;47465;43.094;12.434;2023-06-05T08:53:17;98679.47;;;19.22;100.00
61573;BME280;47465;43.094;12.434;2023-06-05T08:55:53;98679.56;;;19.20;100.00
61573;BME280;47465;43.094;12.434;2023-06-05T08:58:22;98680.59;;;19.32;100.00
61573;BME280;47465;43.094;12.434;2023-06-05T09:00:49;98664.50;;;19.45;100.00
61573;BME280;47465;43.094;12.434;2023-06-05T09:03:15;98676.25;;;19.44;100.00
61573;BME280;47465;43.094;12.434;2023-06-05T09:05:46;98676.94;;;19.47;100.00
61573;BME280;47465;43.094;12.434;2023-06-05T09:08:14;98685.75;;;19.49;100.00
61573;BME280;47465;43.094;12.434;2023-06-05T09:10:40;98675.63;;;19.26;100.00
61573;BME280;47465;43.094;12.434;2023-06-05T09:13:07;98673.94;;;19.38;100.00
61573;BME280;47465;43.094;12.434;2023-06-05T09:15:34;98705.78;;;20.01;100.00
61573;BME280;47465;43.094;12.434;2023-06-05T09:18:05;98678.22;;;20.36;100.00
61573;BME280;47465;43.094;12.434;2023-06-05T09:20:34;98672.25;;;20.84;100.00
61573;BME280;47465;43.094;12.434;2023-06-05T09:23:00;98655.59;;;21.03;100.00
61573;BME280;47465;43.094;12.434;2023-06-05T09:25:26;98652.53;;;21.20;100.00
61573;BME280;47465;43.094;12.434;2023-06-05T09:28:08;98683.13;;;21.46;100.00
61573;BME280;47465;43.094;12.434;2023-06-05T09:30:53;98689.59;;;21.31;100.00
61573;BME280;47465;43.094;12.434;2023-06-05T09:33:20;98657.19;;;21.05;100.00
61573;BME280;47465;43.094;12.434;2023-06-05T09:35:46;98681.41;;;21.20;100.00
61573;BME280;47465;43.094;12.434;2023-06-05T09:38:25;98692.56;;;21.28;100.00
61573;BME280;47465;43.094;12.434;2023-06-05T09:40:52;98660.97;;;21.16;100.00
61573;BME280;47465;43.094;12.434;2023-06-05T09:43:22;98676.53;;;21.25;100.00
61573;BME280;47465;43.094;12.434;2023-06-05T09:45:48;98653.47;;;21.82;100.00
61573;BME280;47465;43.094;12.434;2023-06-05T09:48:15;98655.56;;;21.65;100.00
61573;BME280;47465;43.094;12.434;2023-06-05T09:50:41;98676.38;;;21.65;100.00
61573;BME280;47465;43.094;12.434;2023-06-05T09:53:08;98678.13;;;21.27;100.00
61573;BME280;47465;43.094;12.434;2023-06-05T09:55:36;98659.66;;;21.34;100.00
61573;BME280;47465;43.094;12.434;2023-06-05T09:58:04;98664.59;;;21.77;100.00
61573;BME280;47465;43.094;12.434;2023-06-05T10:00:40;98669.91;;;22.73;100.00
61573;BME280;47465;43.094;12.434;2023-06-05T10:03:08;98672.41;;;22.99;100.00
61573;BME280;47465;43.094;12.434;2023-06-05T10:05:40;98672.91;;;22.46;100.00
61573;BME280;47465;43.094;12.434;2023-06-05T10:08:08;98674.09;;;22.66;100.00
61573;BME280;47465;43.094;12.434;2023-06-05T10:10:36;98641.75;;;23.10;99.49
61573;BME280;47465;43.094;12.434;2023-06-05T10:13:03;98636.19;;;23.11;99.30
61573;BME280;47465;43.094;12.434;2023-06-05T10:15:31;98634.69;;;22.96;100.00
61573;BME280;47465;43.094;12.434;2023-06-05T10:17:59;98666.75;;;23.47;98.57
61573;BME280;47465;43.094;12.434;2023-06-05T10:20:26;98646.88;;;23.58;100.00
61573;BME280;47465;43.094;12.434;2023-06-05T10:22:53;98622.59;;;23.45;96.26
61573;BME280;47465;43.094;12.434;2023-06-05T10:25:20;98636.66;;;23.39;97.69
61573;BME280;47465;43.094;12.434;2023-06-05T10:28:05;98652.97;;;23.16;95.85
61573;BME280;47465;43.094;12.434;2023-06-05T10:33:49;98639.25;;;23.41;95.45
61573;BME280;47465;43.094;12.434;2023-06-05T10:36:26;98633.00;;;23.72;94.10
61573;BME280;47465;43.094;12.434;2023-06-05T10:38:58;98619.56;;;23.71;93.16
61573;BME280;47465;43.094;12.434;2023-06-05T10:41:25;98632.78;;;23.75;89.13
61573;BME280;47465;43.094;12.434;2023-06-05T10:43:52;98646.38;;;23.42;94.35
61573;BME280;47465;43.094;12.434;2023-06-05T10:46:29;98628.41;;;23.18;93.57
61573;BME280;47465;43.094;12.434;2023-06-05T10:49:13;98647.97;;;23.67;92.81
61573;BME280;47465;43.094;12.434;2023-06-05T10:51:43;98613.91;;;23.63;91.17
61573;BME280;47465;43.094;12.434;2023-06-05T10:54:11;98634.59;;;23.86;87.18
61573;BME280;47465;43.094;12.434;2023-06-05T10:56:53;98620.78;;;23.23;91.72
61573;BME280;47465;43.094;12.434;2023-06-05T10:59:21;98626.56;;;23.30;91.01
61573;BME280;47465;43.094;12.434;2023-06-05T11:02:21;98629.47;;;22.70;95.43
61573;BME280;47465;43.094;12.434;2023-06-05T11:05:09;98613.88;;;23.19;91.02
61573;BME280;47465;43.094;12.434;2023-06-05T11:07:36;98622.25;;;24.14;89.38
61573;BME280;47465;43.094;12.434;2023-06-05T11:10:24;98626.03;;;24.55;85.39
61573;BME280;47465;43.094;12.434;2023-06-05T11:13:00;98616.63;;;24.90;87.25
61573;BME280;47465;43.094;12.434;2023-06-05T11:15:40;98605.38;;;25.45;83.57
61573;BME280;47465;43.094;12.434;2023-06-05T11:21:11;98592.13;;;24.59;85.41
61573;BME280;47465;43.094;12.434;2023-06-05T11:23:38;98588.59;;;24.69;86.08
61573;BME280;47465;43.094;12.434;2023-06-05T11:26:38;98600.78;;;25.05;83.43
61573;BME280;47465;43.094;12.434;2023-06-05T11:29:11;98592.97;;;24.81;86.15
61573;BME280;47465;43.094;12.434;2023-06-05T11:31:37;98587.84;;;24.97;85.28
61573;BME280;47465;43.094;12.434;2023-06-05T11:34:11;98590.53;;;25.18;82.77
61573;BME280;47465;43.094;12.434;2023-06-05T11:36:40;98550.06;;;25.54;79.05
61573;BME280;47465;43.094;12.434;2023-06-05T11:39:06;98582.06;;;25.91;77.31
61573;BME280;47465;43.094;12.434;2023-06-05T11:41:33;98549.53;;;25.70;73.12
61573;BME280;47465;43.094;12.434;2023-06-05T11:43:59;98569.19;;;26.03;74.81
61573;BME280;47465;43.094;12.434;2023-06-05T11:46:36;98578.78;;;26.27;78.63
61573;BME280;47465;43.094;12.434;2023-06-05T11:49:02;98589.66;;;25.78;81.58
61573;BME280;47465;43.094;12.434;2023-06-05T11:51:32;98565.63;;;25.23;83.24
61573;BME280;47465;43.094;12.434;2023-06-05T11:54:00;98568.72;;;24.68;83.67
61573;BME280;47465;43.094;12.434;2023-06-05T11:56:27;98569.97;;;24.22;85.51
61573;BME280;47465;43.094;12.434;2023-06-05T11:58:54;98546.91;;;23.63;88.92
61573;BME280;47465;43.094;12.434;2023-06-05T12:01:20;98569.84;;;23.59;87.62
61573;BME280;47465;43.094;12.434;2023-06-05T12:03:48;98550.44;;;23.43;88.46
61573;BME280;47465;43.094;12.434;2023-06-05T12:06:16;98555.78;;;23.22;90.07
61573;BME280;47465;43.094;12.434;2023-06-05T12:08:43;98551.09;;;23.24;90.28
61573;BME280;47465;43.094;12.434;2023-06-05T12:11:22;98569.09;;;23.36;91.18
61573;BME280;47465;43.094;12.434;2023-06-05T12:13:49;98576.75;;;23.20;91.10
61573;BME280;47465;43.094;12.434;2023-06-05T12:16:16;98539.75;;;22.96;91.62
61573;BME280;47465;43.094;12.434;2023-06-05T12:18:42;98558.22;;;23.25;90.20
61573;BME280;47465;43.094;12.434;2023-06-05T12:21:19;98561.53;;;23.40;89.62
61573;BME280;47465;43.094;12.434;2023-06-05T12:23:49;98552.38;;;23.52;89.00
61573;BME280;47465;43.094;12.434;2023-06-05T12:26:15;98549.19;;;23.47;90.02
61573;BME280;47465;43.094;12.434;2023-06-05T12:28:43;98552.31;;;23.63;90.83
61573;BME280;47465;43.094;12.434;2023-06-05T12:31:09;98556.16;;;23.61;90.44
61573;BME280;47465;43.094;12.434;2023-06-05T12:33:45;98531.13;;;23.57;90.13
61573;BME280;47465;43.094;12.434;2023-06-05T12:36:11;98550.09;;;23.25;90.85
61573;BME280;47465;43.094;12.434;2023-06-05T12:38:38;98548.91;;;23.06;90.67
61573;BME280;47465;43.094;12.434;2023-06-05T12:41:08;98569.28;;;23.44;89.85
61573;BME280;47465;43.094;12.434;2023-06-05T12:43:35;98569.84;;;23.70;89.54
61573;BME280;47465;43.094;12.434;2023-06-05T12:46:02;98557.31;;;23.90;88.82
61573;BME280;47465;43.094;12.434;2023-06-05T12:48:28;98557.25;;;24.02;88.79
61573;BME280;47465;43.094;12.434;2023-06-05T12:50:55;98554.38;;;24.24;86.16
61573;BME280;47465;43.094;12.434;2023-06-05T12:53:22;98550.75;;;24.35;86.97
61573;BME280;47465;43.094;12.434;2023-06-05T12:55:47;98554.06;;;24.38;85.94
61573;BME280;47465;43.094;12.434;2023-06-05T12:58:13;98563.66;;;24.43;85.02
61573;BME280;47465;43.094;12.434;2023-06-05T13:00:39;98550.75;;;24.56;85.21
61573;BME280;47465;43.094;12.434;2023-06-05T13:03:07;98569.13;;;24.64;85.80
61573;BME280;47465;43.094;12.434;2023-06-05T13:05:32;98570.31;;;24.50;86.76
61573;BME280;47465;43.094;12.434;2023-06-05T13:07:58;98557.63;;;24.18;87.81